createdAt,value
2022-10-20T00:03:53.102Z,18.70
2022-10-20T00:11:58.342Z,18.70
2022-10-20T00:20:06.455Z,18.50
2022-10-20T00:28:12.000Z,18.30
2022-10-20T00:36:22.906Z,18.10
2022-10-20T00:44:54.142Z,18.10
2022-10-20T00:53:04.290Z,17.90
2022-10-20T01:01:09.870Z,17.50
2022-10-20T01:09:17.915Z,17.70
2022-10-20T01:17:32.385Z,17.80
2022-10-20T01:25:56.420Z,17.70
2022-10-20T01:34:12.728Z,17.60
2022-10-20T01:42:23.668Z,17.60
2022-10-20T01:50:32.468Z,17.50
2022-10-20T01:59:32.069Z,17.40
2022-10-20T02:07:40.779Z,17.30
2022-10-20T02:15:49.904Z,17.20
2022-10-20T02:24:03.708Z,17.00
2022-10-20T02:32:10.727Z,17.00
2022-10-20T02:40:19.036Z,16.90
2022-10-20T02:48:24.297Z,16.80
2022-10-20T02:56:32.210Z,16.80
2022-10-20T03:04:37.476Z,16.70
2022-10-20T03:12:45.335Z,16.80
2022-10-20T03:20:53.259Z,16.70
2022-10-20T03:29:01.241Z,16.60
2022-10-20T03:37:06.528Z,16.50
2022-10-20T03:45:17.750Z,16.50
2022-10-20T03:53:24.027Z,16.50
2022-10-20T04:01:35.195Z,16.50
2022-10-20T04:09:40.530Z,16.50
2022-10-20T04:17:48.534Z,16.00
2022-10-20T04:25:53.828Z,15.90
2022-10-20T04:34:01.680Z,15.80
2022-10-20T04:42:07.018Z,15.60
2022-10-20T04:50:17.102Z,15.50
2022-10-20T04:58:36.622Z,15.50
2022-10-20T05:06:45.174Z,15.40
2022-10-20T05:14:50.410Z,15.40
2022-10-20T05:22:58.780Z,15.40
2022-10-20T05:31:05.518Z,15.50
2022-10-20T05:39:14.369Z,15.60
2022-10-20T05:47:19.648Z,15.70
2022-10-20T05:55:27.665Z,15.70
2022-10-20T06:03:33.179Z,15.90
2022-10-20T06:11:41.898Z,16.10
2022-10-20T06:19:47.631Z,16.20
2022-10-20T06:27:55.544Z,16.40
2022-10-20T06:36:03.475Z,16.60
2022-10-20T06:44:11.381Z,16.80
2022-10-20T06:52:17.209Z,17.00
2022-10-20T07:00:25.261Z,17.20
2022-10-20T07:08:32.112Z,17.40
2022-10-20T07:16:40.061Z,17.80
2022-10-20T07:24:45.370Z,17.90
2022-10-20T07:32:54.431Z,18.10
2022-10-20T07:41:05.233Z,18.40
2022-10-20T07:57:38.423Z,19.10
2022-10-20T08:05:46.329Z,19.70
2022-10-20T08:13:51.683Z,20.10
2022-10-20T08:21:59.807Z,20.10
2022-10-20T08:30:22.903Z,20.30
2022-10-20T08:38:31.555Z,20.30
2022-10-20T08:46:39.360Z,20.40
2022-10-20T08:54:47.580Z,21.50
2022-10-20T09:02:54.502Z,30.70
2022-10-20T09:11:03.390Z,37.20
2022-10-20T09:19:16.821Z,40.20
2022-10-20T09:27:35.713Z,41.00
2022-10-20T09:35:43.463Z,42.60
2022-10-20T09:43:58.174Z,43.40
2022-10-20T09:52:04.796Z,43.70
2022-10-20T10:00:36.879Z,43.90
2022-10-20T10:08:48.327Z,43.90
2022-10-20T10:16:56.278Z,43.80
2022-10-20T10:25:03.679Z,43.80
2022-10-20T10:33:28.906Z,42.40
2022-10-20T10:41:55.286Z,33.80
2022-10-20T10:50:22.267Z,27.50
2022-10-20T10:58:43.037Z,24.80
2022-10-20T11:06:57.959Z,23.10
2022-10-20T11:15:18.472Z,22.30
2022-10-20T11:23:47.548Z,21.80
2022-10-20T11:31:59.236Z,21.60
2022-10-20T11:40:19.183Z,21.00
2022-10-20T11:48:29.754Z,20.70
2022-10-20T11:57:07.043Z,20.50
2022-10-20T12:05:41.567Z,20.60
2022-10-20T12:13:59.457Z,20.10
2022-10-20T12:22:06.925Z,19.90
2022-10-20T12:30:42.165Z,19.60
2022-10-20T12:38:52.988Z,19.60
2022-10-20T12:47:01.344Z,18.80
2022-10-20T12:55:17.958Z,18.90
2022-10-20T13:03:49.518Z,18.50
2022-10-20T13:12:04.518Z,18.80
2022-10-20T13:20:24.143Z,18.60
2022-10-20T13:28:34.146Z,18.60
2022-10-20T13:36:50.274Z,19.00
2022-10-20T13:45:09.323Z,19.20
2022-10-20T13:53:22.473Z,19.20
2022-10-20T14:01:31.510Z,19.10
2022-10-20T14:09:39.523Z,19.30
2022-10-20T14:17:58.908Z,18.90
2022-10-20T14:26:05.515Z,18.90
2022-10-20T14:34:23.777Z,18.80
2022-10-20T14:42:33.073Z,18.60
2022-10-20T14:50:41.904Z,18.60
2022-10-20T14:59:01.095Z,18.60
2022-10-20T15:07:15.608Z,18.60
2022-10-20T15:15:25.133Z,18.40
2022-10-20T15:23:33.903Z,18.10
2022-10-20T15:31:39.242Z,18.20
2022-10-20T15:39:47.431Z,18.30
2022-10-20T15:47:52.786Z,18.20
2022-10-20T15:56:00.668Z,18.10
2022-10-20T16:04:10.080Z,18.00
2022-10-20T16:12:18.316Z,17.90
2022-10-20T16:20:23.647Z,17.80
2022-10-20T16:28:33.819Z,17.60
2022-10-20T16:36:39.213Z,17.50
2022-10-20T16:44:47.672Z,17.40
2022-10-20T16:52:52.957Z,17.30
2022-10-20T17:01:06.557Z,17.10
2022-10-20T17:09:12.137Z,16.90
2022-10-20T17:17:20.111Z,16.80
2022-10-20T17:25:25.643Z,16.50
2022-10-20T17:33:34.671Z,16.20
2022-10-20T17:41:42.979Z,16.00
2022-10-20T17:49:50.997Z,15.80
2022-10-20T17:57:56.267Z,15.60
2022-10-20T18:06:09.798Z,15.50
2022-10-20T18:14:15.236Z,15.40
2022-10-20T18:22:23.959Z,15.40
2022-10-20T18:30:29.508Z,15.30
2022-10-20T18:38:39.373Z,15.10
2022-10-20T18:46:46.203Z,15.00
2022-10-20T18:54:54.414Z,14.90
2022-10-20T19:03:01.630Z,14.70
2022-10-20T19:11:12.189Z,14.80
2022-10-20T19:19:18.429Z,14.60
2022-10-20T19:27:27.417Z,14.50
2022-10-20T19:35:33.019Z,14.40
2022-10-20T19:43:41.991Z,14.40
2022-10-20T19:51:47.448Z,14.40
2022-10-20T19:59:55.515Z,14.30
2022-10-20T20:08:00.838Z,14.20
2022-10-20T20:16:12.319Z,14.10
2022-10-20T20:24:17.927Z,14.10
2022-10-20T20:32:25.760Z,14.10
2022-10-20T20:40:31.078Z,13.90
2022-10-20T20:48:39.407Z,13.80
2022-10-20T20:56:45.745Z,13.70
2022-10-20T21:04:53.685Z,13.60
2022-10-20T21:12:59.015Z,13.50
2022-10-20T21:21:13.096Z,13.50
2022-10-20T21:29:18.589Z,13.40
2022-10-20T21:37:26.475Z,13.30
2022-10-20T21:45:31.771Z,13.20
2022-10-20T21:53:39.776Z,13.10
2022-10-20T22:01:45.048Z,12.90
2022-10-20T22:09:53.390Z,12.80
2022-10-20T22:17:58.663Z,12.60
2022-10-20T23:04:54.474Z,7.90
2022-10-20T23:12:59.721Z,12.00
2022-10-20T23:21:08.542Z,12.20
2022-10-20T23:29:13.836Z,12.30
2022-10-20T23:37:23.761Z,12.30
2022-10-20T23:45:30.112Z,12.10
2022-10-20T23:53:38.877Z,11.90
